createdAt,value
2018-05-29T00:02:04.891Z,67.25
2018-05-29T00:04:32.407Z,67.60
2018-05-29T00:06:59.924Z,67.96
2018-05-29T00:09:27.425Z,67.83
2018-05-29T00:11:54.938Z,67.54
2018-05-29T00:14:22.440Z,67.79
2018-05-29T00:16:49.946Z,68.16
2018-05-29T00:19:17.450Z,70.25
2018-05-29T00:21:44.988Z,68.67
2018-05-29T00:24:12.500Z,69.46
2018-05-29T00:26:40.005Z,67.58
2018-05-29T00:29:07.526Z,68.11
2018-05-29T00:31:35.032Z,69.20
2018-05-29T00:34:02.545Z,69.38
2018-05-29T00:36:30.051Z,68.77
2018-05-29T00:38:57.570Z,69.62
2018-05-29T00:41:25.080Z,69.64
2018-05-29T00:43:52.579Z,69.23
2018-05-29T00:46:20.084Z,68.49
2018-05-29T00:48:47.580Z,68.31
2018-05-29T00:51:15.081Z,68.54
2018-05-29T00:53:42.604Z,69.20
2018-05-29T00:56:10.108Z,69.31
2018-05-29T00:58:37.619Z,69.11
2018-05-29T01:01:05.122Z,69.06
2018-05-29T01:03:32.650Z,67.64
2018-05-29T01:06:00.149Z,68.02
2018-05-29T01:08:27.651Z,68.68
2018-05-29T01:10:55.158Z,67.97
2018-05-29T01:13:22.663Z,67.59
2018-05-29T01:15:50.171Z,69.16
2018-05-29T01:18:17.684Z,68.47
2018-05-29T01:20:45.255Z,68.29
2018-05-29T01:23:12.760Z,67.76
2018-05-29T01:25:40.281Z,68.16
2018-05-29T01:28:07.774Z,68.42
2018-05-29T01:30:35.315Z,67.75
2018-05-29T01:33:02.890Z,68.27
2018-05-29T01:35:30.401Z,68.80
2018-05-29T01:37:57.918Z,68.58
2018-05-29T01:40:25.424Z,68.30
2018-05-29T01:42:52.931Z,69.20
2018-05-29T01:45:20.435Z,69.88
2018-05-29T01:47:47.952Z,69.41
2018-05-29T01:50:15.499Z,70.56
2018-05-29T01:52:43.010Z,71.87
2018-05-29T01:55:10.520Z,70.00
2018-05-29T01:57:38.079Z,70.55
2018-05-29T02:00:06.495Z,70.84
2018-05-29T02:02:34.011Z,71.95
2018-05-29T02:05:01.556Z,72.06
2018-05-29T02:07:29.058Z,71.47
2018-05-29T02:09:56.559Z,70.36
2018-05-29T02:12:24.094Z,70.63
2018-05-29T02:14:51.598Z,71.80
2018-05-29T02:17:19.111Z,72.34
2018-05-29T02:19:46.608Z,70.46
2018-05-29T02:22:31.700Z,70.31
2018-05-29T02:24:59.271Z,69.28
2018-05-29T02:27:26.784Z,68.60
2018-05-29T02:29:54.295Z,70.42
2018-05-29T02:32:21.796Z,70.43
2018-05-29T02:34:49.300Z,69.62
2018-05-29T02:37:16.794Z,68.01
2018-05-29T02:39:44.305Z,69.71
2018-05-29T02:42:11.812Z,69.60
2018-05-29T02:44:39.311Z,70.36
2018-05-29T02:47:06.812Z,69.37
2018-05-29T02:49:34.312Z,69.26
2018-05-29T02:52:01.811Z,69.55
2018-05-29T02:54:29.320Z,70.56
2018-05-29T02:56:57.714Z,70.76
2018-05-29T02:59:25.234Z,70.06
2018-05-29T03:01:52.800Z,68.35
2018-05-29T03:04:20.318Z,68.85
2018-05-29T03:06:47.828Z,67.57
2018-05-29T03:09:15.328Z,66.84
2018-05-29T03:11:42.848Z,67.47
2018-05-29T03:14:10.399Z,67.56
2018-05-29T03:16:37.917Z,67.92
2018-05-29T03:19:05.466Z,66.97
2018-05-29T03:21:32.963Z,67.36
2018-05-29T03:24:00.472Z,67.25
2018-05-29T03:26:28.011Z,65.77
2018-05-29T03:28:55.520Z,65.90
2018-05-29T03:31:23.029Z,64.73
2018-05-29T03:33:50.584Z,65.24
2018-05-29T03:36:18.115Z,65.79
2018-05-29T03:38:45.622Z,66.33
2018-05-29T03:41:13.128Z,66.46
2018-05-29T03:43:40.627Z,65.36
2018-05-29T03:46:08.135Z,65.20
2018-05-29T03:48:35.629Z,65.14
2018-05-29T03:51:03.144Z,65.85
2018-05-29T03:53:30.679Z,65.40
2018-05-29T03:55:58.200Z,64.79
2018-05-29T03:58:25.711Z,65.17
2018-05-29T04:00:53.215Z,65.67
2018-05-29T04:03:20.724Z,66.39
2018-05-29T04:05:48.285Z,65.93
2018-05-29T04:08:15.795Z,65.56
2018-05-29T04:10:43.301Z,65.89
2018-05-29T04:13:10.851Z,66.36
2018-05-29T04:15:38.363Z,64.99
2018-05-29T04:18:05.893Z,65.91
2018-05-29T04:20:33.405Z,65.35
2018-05-29T04:23:00.902Z,65.17
2018-05-29T04:25:28.407Z,65.77
2018-05-29T04:27:56.194Z,64.96
2018-05-29T04:30:23.714Z,65.99
2018-05-29T04:32:51.215Z,65.58
2018-05-29T04:35:18.728Z,65.54
2018-05-29T04:37:46.291Z,64.78
2018-05-29T04:40:13.831Z,64.80
2018-05-29T04:42:41.344Z,64.21
2018-05-29T04:45:08.855Z,64.52
2018-05-29T04:47:36.375Z,63.94
2018-05-29T04:50:03.891Z,63.61
2018-05-29T04:52:31.405Z,63.93
2018-05-29T04:54:58.965Z,64.44
2018-05-29T04:57:26.479Z,63.50
2018-05-29T04:59:53.995Z,63.38
2018-05-29T05:02:21.503Z,62.51
2018-05-29T05:04:49.043Z,61.99
2018-05-29T05:07:16.552Z,61.37
2018-05-29T05:09:44.121Z,60.50
2018-05-29T05:12:11.667Z,60.36
2018-05-29T05:14:39.171Z,57.72
2018-05-29T05:17:06.695Z,57.38
2018-05-29T05:19:34.199Z,56.72
2018-05-29T05:22:01.714Z,56.21
2018-05-29T05:24:29.210Z,54.15
2018-05-29T05:26:56.725Z,53.06
2018-05-29T05:29:24.229Z,52.51
2018-05-29T05:31:51.744Z,52.21
2018-05-29T05:34:19.243Z,50.74
2018-05-29T05:36:46.742Z,49.71
2018-05-29T05:39:14.261Z,48.56
2018-05-29T05:41:41.771Z,48.36
2018-05-29T05:44:09.276Z,47.30
2018-05-29T05:46:37.570Z,46.41
2018-05-29T05:49:05.123Z,45.45
2018-05-29T05:51:32.642Z,45.46
2018-05-29T05:54:00.193Z,44.61
2018-05-29T05:56:27.703Z,44.15
2018-05-29T05:58:55.220Z,41.89
2018-05-29T06:01:22.730Z,41.71
2018-05-29T06:03:50.235Z,41.36
2018-05-29T06:06:17.749Z,41.72
2018-05-29T06:08:45.256Z,40.80
2018-05-29T06:11:12.972Z,40.07
2018-05-29T06:13:40.495Z,39.71
2018-05-29T06:16:08.011Z,37.77
2018-05-29T06:18:35.520Z,37.47
2018-05-29T06:21:03.035Z,37.79
2018-05-29T06:23:30.538Z,37.07
2018-05-29T06:25:58.086Z,35.71
2018-05-29T06:28:26.696Z,33.72
2018-05-29T06:30:54.240Z,34.27
2018-05-29T06:33:21.791Z,34.85
2018-05-29T06:35:49.317Z,33.82
2018-05-29T06:38:16.915Z,32.95
2018-05-29T06:40:44.445Z,31.74
2018-05-29T06:43:11.959Z,30.86
2018-05-29T06:45:39.504Z,30.23
2018-05-29T06:48:07.125Z,31.02
2018-05-29T06:50:34.673Z,30.34
2018-05-29T06:53:02.219Z,30.08
2018-05-29T06:55:29.748Z,29.82
2018-05-29T06:57:57.570Z,28.65
2018-05-29T07:00:25.552Z,28.08
2018-05-29T07:02:53.100Z,27.92
2018-05-29T07:05:20.865Z,28.28
2018-05-29T07:07:48.574Z,27.69
2018-05-29T07:10:16.113Z,28.31
2018-05-29T07:12:43.645Z,28.21
2018-05-29T07:15:11.202Z,28.62
2018-05-29T07:17:38.711Z,29.95
2018-05-29T07:20:06.240Z,29.78
2018-05-29T07:22:34.198Z,29.24
2018-05-29T07:25:01.742Z,29.07
2018-05-29T07:27:29.314Z,28.77
2018-05-29T07:29:56.836Z,29.89
2018-05-29T07:32:24.370Z,29.29
2018-05-29T07:34:51.915Z,30.30
2018-05-29T07:37:19.429Z,30.12
2018-05-29T07:39:46.960Z,29.48
2018-05-29T07:42:14.563Z,28.79
2018-05-29T07:44:42.159Z,27.82
2018-05-29T07:47:09.702Z,27.73
2018-05-29T07:49:37.238Z,28.30
2018-05-29T07:52:04.816Z,28.32
2018-05-29T07:54:32.364Z,28.81
2018-05-29T07:56:59.908Z,28.47
2018-05-29T07:59:27.419Z,28.59
2018-05-29T08:01:54.927Z,27.54
2018-05-29T08:04:22.472Z,27.08
2018-05-29T08:06:50.025Z,28.89
2018-05-29T08:09:17.574Z,29.51
2018-05-29T08:11:45.088Z,29.19
2018-05-29T08:14:12.596Z,28.54
2018-05-29T08:16:40.213Z,27.25
2018-05-29T08:19:07.850Z,27.40
2018-05-29T08:21:35.368Z,26.39
2018-05-29T08:24:02.879Z,25.68
2018-05-29T08:26:30.498Z,25.37
2018-05-29T08:28:58.024Z,25.53
2018-05-29T08:31:25.634Z,25.71
2018-05-29T08:33:53.186Z,25.91
2018-05-29T08:36:20.869Z,25.83
2018-05-29T08:38:48.446Z,24.93
2018-05-29T08:41:16.096Z,26.67
2018-05-29T08:43:43.627Z,27.39
2018-05-29T08:46:11.139Z,27.43
2018-05-29T08:48:38.648Z,26.16
2018-05-29T08:51:06.273Z,25.57
2018-05-29T08:53:33.815Z,25.53
2018-05-29T08:56:01.430Z,25.44
2018-05-29T08:58:29.058Z,25.47
2018-05-29T09:00:57.006Z,25.98
2018-05-29T09:03:24.504Z,26.12
2018-05-29T09:05:52.114Z,25.44
2018-05-29T09:08:19.748Z,25.11
2018-05-29T09:10:47.432Z,25.44
2018-05-29T09:13:14.961Z,25.48
2018-05-29T09:15:42.566Z,25.75
2018-05-29T09:18:10.189Z,24.92
2018-05-29T09:20:37.876Z,25.05
2018-05-29T09:23:05.514Z,24.71
2018-05-29T09:25:33.083Z,24.67
2018-05-29T09:28:00.698Z,24.80
2018-05-29T09:30:28.265Z,25.46
2018-05-29T09:32:55.928Z,25.84
2018-05-29T09:35:23.609Z,26.40
2018-05-29T09:37:51.133Z,26.57
2018-05-29T09:40:18.782Z,25.31
2018-05-29T09:42:46.429Z,25.74
2018-05-29T09:45:14.066Z,24.60
2018-05-29T09:47:41.601Z,24.54
2018-05-29T09:50:09.116Z,24.35
2018-05-29T09:52:36.630Z,25.18
2018-05-29T09:55:04.240Z,25.73
2018-05-29T09:57:31.865Z,24.38
2018-05-29T09:59:59.545Z,24.48
2018-05-29T10:02:27.215Z,24.83
2018-05-29T10:04:54.752Z,24.99
2018-05-29T10:07:22.358Z,24.44
2018-05-29T10:09:49.980Z,24.88
2018-05-29T10:12:17.507Z,24.99
2018-05-29T10:14:45.120Z,25.95
2018-05-29T10:17:12.657Z,26.37
2018-05-29T10:19:40.261Z,25.85
2018-05-29T10:22:07.799Z,25.16
2018-05-29T10:24:35.327Z,24.87
2018-05-29T10:27:02.825Z,24.70
2018-05-29T10:29:30.433Z,23.34
2018-05-29T10:31:58.058Z,23.78
2018-05-29T10:34:25.587Z,24.50
2018-05-29T10:36:53.108Z,26.04
2018-05-29T10:39:20.623Z,27.20
2018-05-29T10:41:48.132Z,27.08
2018-05-29T10:44:15.638Z,27.93
2018-05-29T10:46:43.254Z,29.12
2018-05-29T10:49:10.912Z,30.81
2018-05-29T10:51:38.545Z,30.09
2018-05-29T10:54:06.177Z,29.86
2018-05-29T10:56:33.794Z,29.23
2018-05-29T10:59:01.423Z,28.30
2018-05-29T11:01:28.969Z,26.98
2018-05-29T11:03:56.577Z,25.12
2018-05-29T11:06:24.212Z,25.79
2018-05-29T11:08:51.739Z,27.20
2018-05-29T11:11:19.255Z,27.18
2018-05-29T11:13:46.758Z,29.95
2018-05-29T11:16:14.265Z,28.51
2018-05-29T11:18:41.806Z,28.00
2018-05-29T11:21:09.310Z,29.88
2018-05-29T11:23:37.580Z,31.34
2018-05-29T11:26:05.085Z,31.84
2018-05-29T11:28:32.607Z,32.99
2018-05-29T11:31:00.112Z,32.76
2018-05-29T11:33:27.617Z,32.75
2018-05-29T11:35:55.124Z,31.24
2018-05-29T11:38:22.613Z,30.54
2018-05-29T11:40:50.115Z,32.09
2018-05-29T11:43:17.635Z,32.55
2018-05-29T11:45:45.169Z,28.89
2018-05-29T11:48:12.726Z,29.46
2018-05-29T11:50:40.239Z,30.17
2018-05-29T11:53:07.823Z,31.61
2018-05-29T11:55:35.328Z,31.10
2018-05-29T11:58:02.839Z,32.59
2018-05-29T12:00:30.369Z,31.25
2018-05-29T12:02:57.851Z,29.59
2018-05-29T12:05:25.355Z,29.33
2018-05-29T12:07:52.864Z,29.70
2018-05-29T12:10:20.370Z,31.65
2018-05-29T12:12:47.871Z,33.24
2018-05-29T12:15:15.390Z,33.21
2018-05-29T12:17:42.888Z,33.71
2018-05-29T12:20:10.387Z,34.67
2018-05-29T12:22:37.892Z,34.07
2018-05-29T12:25:05.409Z,33.54
2018-05-29T12:27:32.919Z,33.85
2018-05-29T12:30:00.436Z,34.18
2018-05-29T12:32:27.956Z,35.05
2018-05-29T12:34:55.479Z,34.92
2018-05-29T12:37:22.978Z,34.96
2018-05-29T12:39:50.532Z,34.79
2018-05-29T12:42:18.041Z,34.17
2018-05-29T12:44:45.566Z,33.77
2018-05-29T12:47:13.061Z,34.04
2018-05-29T12:49:40.555Z,33.84
2018-05-29T12:52:08.048Z,33.35
2018-05-29T12:54:35.546Z,33.24
2018-05-29T12:57:03.057Z,32.85
2018-05-29T12:59:30.555Z,33.18
2018-05-29T13:01:58.051Z,33.63
2018-05-29T13:04:25.605Z,33.37
2018-05-29T13:06:53.167Z,33.42
2018-05-29T13:09:20.671Z,32.31
2018-05-29T13:11:48.170Z,31.17
2018-05-29T13:14:15.684Z,30.14
2018-05-29T13:16:43.252Z,28.64
2018-05-29T13:19:10.809Z,27.70
2018-05-29T13:21:38.378Z,29.48
2018-05-29T13:24:05.886Z,28.88
2018-05-29T13:26:33.397Z,28.00
2018-05-29T13:29:00.912Z,28.07
2018-05-29T13:31:28.410Z,27.63
2018-05-29T13:33:55.915Z,27.51
2018-05-29T13:36:23.406Z,29.22
2018-05-29T13:38:50.912Z,31.75
2018-05-29T13:41:18.639Z,32.39
2018-05-29T13:43:46.148Z,33.55
2018-05-29T13:46:13.656Z,34.56
2018-05-29T13:48:41.170Z,34.80
2018-05-29T13:51:08.674Z,35.83
2018-05-29T13:53:36.177Z,35.43
2018-05-29T13:56:03.693Z,34.52
2018-05-29T13:58:31.208Z,35.31
2018-05-29T14:00:58.732Z,34.83
2018-05-29T14:03:26.269Z,34.21
2018-05-29T14:05:53.810Z,34.63
2018-05-29T14:08:21.308Z,35.15
2018-05-29T14:10:48.823Z,35.54
2018-05-29T14:13:16.384Z,34.61
2018-05-29T14:15:43.890Z,35.59
2018-05-29T14:18:11.400Z,35.59
2018-05-29T14:20:38.899Z,35.45
2018-05-29T14:23:06.410Z,35.18
2018-05-29T14:25:33.917Z,35.45
2018-05-29T14:28:01.410Z,35.74
2018-05-29T14:30:28.970Z,35.44
2018-05-29T14:32:56.472Z,35.31
2018-05-29T14:35:23.992Z,35.65
2018-05-29T14:37:51.499Z,35.92
2018-05-29T14:40:19.003Z,36.75
2018-05-29T14:42:46.530Z,36.85
2018-05-29T14:45:14.176Z,37.02
2018-05-29T14:47:41.898Z,37.03
2018-05-29T14:50:09.404Z,36.86
2018-05-29T14:52:36.894Z,37.00
2018-05-29T14:55:04.398Z,36.90
2018-05-29T14:57:31.946Z,36.80
2018-05-29T14:59:59.583Z,36.60
2018-05-29T15:02:27.084Z,36.42
2018-05-29T15:04:54.599Z,36.35
2018-05-29T15:07:22.106Z,36.11
2018-05-29T15:09:49.626Z,36.00
2018-05-29T15:12:17.181Z,36.42
2018-05-29T15:14:44.709Z,37.01
2018-05-29T15:17:12.300Z,36.65
2018-05-29T15:19:39.824Z,36.79
2018-05-29T15:22:07.317Z,36.93
2018-05-29T15:24:34.825Z,37.26
2018-05-29T15:27:02.341Z,37.33
2018-05-29T15:29:29.840Z,37.21
2018-05-29T15:31:57.347Z,36.86
2018-05-29T15:34:24.882Z,36.92
2018-05-29T15:36:52.469Z,36.48
2018-05-29T15:39:20.026Z,36.67
2018-05-29T15:41:47.586Z,36.88
2018-05-29T15:44:15.087Z,37.05
2018-05-29T15:46:42.612Z,37.28
2018-05-29T15:49:10.164Z,37.40
2018-05-29T15:51:37.670Z,37.45
2018-05-29T15:54:05.188Z,37.63
2018-05-29T15:56:32.689Z,37.43
2018-05-29T15:59:00.179Z,36.83
2018-05-29T16:01:27.693Z,36.88
2018-05-29T16:03:55.214Z,37.01
2018-05-29T16:06:22.719Z,37.03
2018-05-29T16:08:50.225Z,36.98
2018-05-29T16:11:18.069Z,37.59
2018-05-29T16:13:45.547Z,37.41
2018-05-29T16:16:13.044Z,37.93
2018-05-29T16:18:40.549Z,38.25
2018-05-29T16:21:08.056Z,38.43
2018-05-29T16:23:35.561Z,38.29
2018-05-29T16:26:03.115Z,38.48
2018-05-29T16:28:30.632Z,38.48
2018-05-29T16:30:58.138Z,38.68
2018-05-29T16:33:25.650Z,38.78
2018-05-29T16:35:53.169Z,38.83
2018-05-29T16:38:20.679Z,39.03
2018-05-29T16:40:48.243Z,38.64
2018-05-29T16:43:15.756Z,38.75
2018-05-29T16:45:43.304Z,38.82
2018-05-29T16:48:10.807Z,38.96
2018-05-29T16:50:38.339Z,39.39
2018-05-29T16:53:05.859Z,39.51
2018-05-29T16:55:33.362Z,39.62
2018-05-29T16:58:00.863Z,39.87
2018-05-29T17:00:28.408Z,39.54
2018-05-29T17:02:55.909Z,39.56
2018-05-29T17:05:23.430Z,39.35
2018-05-29T17:07:50.994Z,39.15
2018-05-29T17:10:18.502Z,39.48
2018-05-29T17:12:45.997Z,39.41
2018-05-29T17:15:13.606Z,39.32
2018-05-29T17:17:41.069Z,39.63
2018-05-29T17:20:08.575Z,39.26
2018-05-29T17:22:36.101Z,39.22
2018-05-29T17:25:03.613Z,39.40
2018-05-29T17:27:31.123Z,39.38
2018-05-29T17:29:58.662Z,39.33
2018-05-29T17:32:26.152Z,39.51
2018-05-29T17:34:53.661Z,39.66
2018-05-29T17:37:21.856Z,39.86
2018-05-29T17:39:49.367Z,40.06
2018-05-29T17:42:16.884Z,40.30
2018-05-29T17:44:44.418Z,40.26
2018-05-29T17:47:11.919Z,40.44
2018-05-29T17:49:39.431Z,40.22
2018-05-29T17:52:06.935Z,40.32
2018-05-29T17:54:34.434Z,40.63
2018-05-29T17:57:02.043Z,40.74
2018-05-29T17:59:29.543Z,41.00
2018-05-29T18:01:57.060Z,41.17
2018-05-29T18:04:24.590Z,41.22
2018-05-29T18:06:52.153Z,41.23
2018-05-29T18:09:19.671Z,40.97
2018-05-29T18:11:47.182Z,40.86
2018-05-29T18:14:14.688Z,41.45
2018-05-29T18:16:42.189Z,40.72
2018-05-29T18:19:09.730Z,40.86
2018-05-29T18:21:37.258Z,40.63
2018-05-29T18:24:04.756Z,40.79
2018-05-29T18:26:32.253Z,40.91
2018-05-29T18:28:59.755Z,40.61
2018-05-29T18:31:27.272Z,40.46
2018-05-29T18:33:54.785Z,40.61
2018-05-29T18:36:22.307Z,40.63
2018-05-29T18:38:50.054Z,40.68
2018-05-29T18:41:17.560Z,40.75
2018-05-29T18:43:45.084Z,40.75
2018-05-29T18:46:12.608Z,40.52
2018-05-29T18:48:40.120Z,40.56
2018-05-29T18:51:07.741Z,40.92
2018-05-29T18:53:35.239Z,41.39
2018-05-29T18:56:02.805Z,41.43
2018-05-29T18:58:30.396Z,41.56
2018-05-29T19:00:57.938Z,41.54
2018-05-29T19:03:25.470Z,41.48
2018-05-29T19:05:53.843Z,41.51
2018-05-29T19:08:21.423Z,41.98
2018-05-29T19:10:48.964Z,42.04
2018-05-29T19:13:16.478Z,42.09
2018-05-29T19:15:44.030Z,41.87
2018-05-29T19:18:11.544Z,42.07
2018-05-29T19:20:39.043Z,42.05
2018-05-29T19:23:06.674Z,42.07
2018-05-29T19:25:34.190Z,42.05
2018-05-29T19:28:01.747Z,42.11
2018-05-29T19:30:29.337Z,42.34
2018-05-29T19:32:56.855Z,43.86
2018-05-29T19:35:24.352Z,43.42
2018-05-29T19:37:51.877Z,43.53
2018-05-29T19:40:19.384Z,43.32
2018-05-29T19:42:46.894Z,43.59
2018-05-29T19:45:14.415Z,43.45
2018-05-29T19:47:41.989Z,43.68
2018-05-29T19:50:09.503Z,43.73
2018-05-29T19:52:37.027Z,44.29
2018-05-29T19:55:04.537Z,43.98
2018-05-29T19:57:32.031Z,44.44
2018-05-29T19:59:59.540Z,44.39
2018-05-29T20:02:27.044Z,45.20
2018-05-29T20:04:54.571Z,44.96
2018-05-29T20:07:22.117Z,45.31
2018-05-29T20:09:49.631Z,45.43
2018-05-29T20:12:17.271Z,45.66
2018-05-29T20:14:44.711Z,46.01
2018-05-29T20:17:12.233Z,46.04
2018-05-29T20:19:39.731Z,46.23
2018-05-29T20:22:08.203Z,46.44
2018-05-29T20:24:35.720Z,46.61
2018-05-29T20:27:03.309Z,46.78
2018-05-29T20:29:31.340Z,46.90
2018-05-29T20:31:58.860Z,47.13
2018-05-29T20:34:26.356Z,47.32
2018-05-29T20:36:54.556Z,47.45
2018-05-29T20:39:22.116Z,47.57
2018-05-29T20:41:49.614Z,47.59
2018-05-29T20:44:17.205Z,47.73
2018-05-29T20:46:44.720Z,47.74
2018-05-29T20:49:12.282Z,47.62
2018-05-29T20:51:39.801Z,47.80
2018-05-29T20:54:07.348Z,47.81
2018-05-29T20:56:34.878Z,47.82
2018-05-29T20:59:02.431Z,48.26
2018-05-29T21:01:29.939Z,48.10
2018-05-29T21:03:57.447Z,48.04
2018-05-29T21:06:24.956Z,48.17
2018-05-29T21:08:52.515Z,48.26
2018-05-29T21:11:20.010Z,48.39
2018-05-29T21:13:47.523Z,48.57
2018-05-29T21:16:15.091Z,48.67
2018-05-29T21:18:42.602Z,48.63
2018-05-29T21:21:10.845Z,48.60
2018-05-29T21:23:38.366Z,48.97
2018-05-29T21:26:05.880Z,49.04
2018-05-29T21:28:33.435Z,49.20
2018-05-29T21:31:00.987Z,49.55
2018-05-29T21:33:28.487Z,49.24
2018-05-29T21:35:56.033Z,49.70
2018-05-29T21:38:23.581Z,50.04
2018-05-29T21:40:51.089Z,49.65
2018-05-29T21:43:18.654Z,49.79
2018-05-29T21:45:46.172Z,49.88
2018-05-29T21:48:13.691Z,49.43
2018-05-29T21:50:41.211Z,49.65
2018-05-29T21:53:08.733Z,49.33
2018-05-29T21:55:36.278Z,49.13
2018-05-29T21:58:03.833Z,49.34
2018-05-29T22:00:31.346Z,49.50
2018-05-29T22:02:58.853Z,49.67
2018-05-29T22:05:26.371Z,50.85
2018-05-29T22:07:53.874Z,51.54
2018-05-29T22:10:21.378Z,52.00
2018-05-29T22:12:48.883Z,52.44
2018-05-29T22:15:18.841Z,52.45
2018-05-29T22:17:50.544Z,52.49
2018-05-29T22:20:18.078Z,52.89
2018-05-29T22:22:45.622Z,53.61
2018-05-29T22:25:13.130Z,54.29
2018-05-29T22:27:40.679Z,55.03
2018-05-29T22:30:08.254Z,54.92
2018-05-29T22:32:35.767Z,55.10
2018-05-29T22:35:03.311Z,55.48
2018-05-29T22:37:30.848Z,55.58
2018-05-29T22:39:58.375Z,56.07
2018-05-29T22:42:25.946Z,56.15
2018-05-29T22:44:53.447Z,56.57
2018-05-29T22:47:20.954Z,57.01
2018-05-29T22:49:48.504Z,57.00
2018-05-29T22:52:16.009Z,56.80
2018-05-29T22:54:43.575Z,57.29
2018-05-29T22:57:11.133Z,57.38
2018-05-29T22:59:38.631Z,57.80
2018-05-29T23:02:06.126Z,57.81
2018-05-29T23:04:33.627Z,58.16
2018-05-29T23:07:01.117Z,58.62
2018-05-29T23:09:28.622Z,58.76
2018-05-29T23:11:56.139Z,58.76
2018-05-29T23:14:23.652Z,59.34
2018-05-29T23:16:51.151Z,59.67
2018-05-29T23:19:18.654Z,59.99
2018-05-29T23:21:46.151Z,60.51
2018-05-29T23:24:13.668Z,60.48
2018-05-29T23:26:41.170Z,61.04
2018-05-29T23:29:08.673Z,61.46
2018-05-29T23:31:36.176Z,62.04
2018-05-29T23:34:03.675Z,62.24
2018-05-29T23:36:31.188Z,62.06
2018-05-29T23:38:58.694Z,61.90
2018-05-29T23:41:26.199Z,62.33
2018-05-29T23:43:54.571Z,62.94
2018-05-29T23:46:22.074Z,63.35
2018-05-29T23:48:49.570Z,63.31
2018-05-29T23:51:17.064Z,63.50
2018-05-29T23:53:44.569Z,63.77
2018-05-29T23:56:12.143Z,64.27
2018-05-29T23:58:39.655Z,64.79
